sensor_id;sensor_type;location;lat;lon;timestamp;P1;durP1;ratioP1;P2;durP2;ratioP2
17987;SDS011;9119;50.932;5.342;2022-09-27T00:02:00;7.73;;;4.10;;
17987;SDS011;9119;50.932;5.342;2022-09-27T00:04:26;8.37;;;4.40;;
17987;SDS011;9119;50.932;5.342;2022-09-27T00:06:51;7.63;;;3.27;;
17987;SDS011;9119;50.932;5.342;2022-09-27T00:09:17;7.97;;;2.10;;
17987;SDS011;9119;50.932;5.342;2022-09-27T00:11:43;12.10;;;2.70;;
17987;SDS011;9119;50.932;5.342;2022-09-27T00:14:10;9.17;;;3.57;;
17987;SDS011;9119;50.932;5.342;2022-09-27T00:16:37;13.63;;;3.97;;
17987;SDS011;9119;50.932;5.342;2022-09-27T00:19:05;7.67;;;3.57;;
17987;SDS011;9119;50.932;5.342;2022-09-27T00:21:34;9.77;;;2.87;;
17987;SDS011;9119;50.932;5.342;2022-09-27T00:24:00;8.70;;;3.70;;
17987;SDS011;9119;50.932;5.342;2022-09-27T00:26:26;7.33;;;2.00;;
17987;SDS011;9119;50.932;5.342;2022-09-27T00:28:52;6.43;;;2.27;;
17987;SDS011;9119;50.932;5.342;2022-09-27T00:31:25;9.17;;;2.07;;
17987;SDS011;9119;50.932;5.342;2022-09-27T00:33:53;7.00;;;1.60;;
17987;SDS011;9119;50.932;5.342;2022-09-27T00:36:21;8.67;;;1.70;;
17987;SDS011;9119;50.932;5.342;2022-09-27T00:38:47;7.20;;;2.20;;
17987;SDS011;9119;50.932;5.342;2022-09-27T00:41:18;10.20;;;3.17;;
17987;SDS011;9119;50.932;5.342;2022-09-27T00:43:56;5.00;;;1.80;;
17987;SDS011;9119;50.932;5.342;2022-09-27T00:52:00;6.37;;;2.30;;
17987;SDS011;9119;50.932;5.342;2022-09-27T00:54:37;7.13;;;2.37;;
17987;SDS011;9119;50.932;5.342;2022-09-27T00:57:06;10.90;;;3.67;;
17987;SDS011;9119;50.932;5.342;2022-09-27T00:59:34;15.17;;;2.47;;
17987;SDS011;9119;50.932;5.342;2022-09-27T01:02:04;9.13;;;2.03;;
17987;SDS011;9119;50.932;5.342;2022-09-27T01:04:31;9.10;;;1.90;;
17987;SDS011;9119;50.932;5.342;2022-09-27T01:06:59;7.30;;;1.57;;
17987;SDS011;9119;50.932;5.342;2022-09-27T01:09:25;5.03;;;1.80;;
17987;SDS011;9119;50.932;5.342;2022-09-27T01:12:15;7.83;;;1.93;;
17987;SDS011;9119;50.932;5.342;2022-09-27T01:23:17;3.63;;;1.07;;
17987;SDS011;9119;50.932;5.342;2022-09-27T01:31:26;3.60;;;1.30;;
17987;SDS011;9119;50.932;5.342;2022-09-27T01:36:42;6.77;;;1.60;;
17987;SDS011;9119;50.932;5.342;2022-09-27T01:42:02;7.90;;;1.70;;
17987;SDS011;9119;50.932;5.342;2022-09-27T01:44:38;2.77;;;1.30;;
17987;SDS011;9119;50.932;5.342;2022-09-27T01:47:17;2.63;;;1.53;;
17987;SDS011;9119;50.932;5.342;2022-09-27T01:52:21;5.53;;;1.30;;
17987;SDS011;9119;50.932;5.342;2022-09-27T01:54:52;6.90;;;1.70;;
17987;SDS011;9119;50.932;5.342;2022-09-27T01:57:23;5.10;;;1.23;;
17987;SDS011;9119;50.932;5.342;2022-09-27T01:59:58;3.30;;;0.90;;
17987;SDS011;9119;50.932;5.342;2022-09-27T02:02:27;3.07;;;1.07;;
17987;SDS011;9119;50.932;5.342;2022-09-27T02:04:59;6.90;;;0.90;;
17987;SDS011;9119;50.932;5.342;2022-09-27T02:07:41;4.17;;;0.93;;
17987;SDS011;9119;50.932;5.342;2022-09-27T02:10:17;4.13;;;1.00;;
17987;SDS011;9119;50.932;5.342;2022-09-27T02:15:56;2.27;;;1.07;;
17987;SDS011;9119;50.932;5.342;2022-09-27T02:18:49;5.57;;;1.43;;
17987;SDS011;9119;50.932;5.342;2022-09-27T02:21:24;4.07;;;1.57;;
17987;SDS011;9119;50.932;5.342;2022-09-27T02:23:57;3.13;;;1.53;;
17987;SDS011;9119;50.932;5.342;2022-09-27T02:26:30;5.53;;;1.70;;
17987;SDS011;9119;50.932;5.342;2022-09-27T02:29:06;8.27;;;1.80;;
17987;SDS011;9119;50.932;5.342;2022-09-27T02:31:39;8.53;;;2.37;;
17987;SDS011;9119;50.932;5.342;2022-09-27T02:34:09;8.47;;;2.30;;
17987;SDS011;9119;50.932;5.342;2022-09-27T02:36:50;9.23;;;2.20;;
17987;SDS011;9119;50.932;5.342;2022-09-27T02:39:17;5.57;;;1.73;;
17987;SDS011;9119;50.932;5.342;2022-09-27T02:41:44;3.07;;;1.63;;
17987;SDS011;9119;50.932;5.342;2022-09-27T02:44:10;13.63;;;2.20;;
17987;SDS011;9119;50.932;5.342;2022-09-27T02:54:48;8.80;;;2.30;;
17987;SDS011;9119;50.932;5.342;2022-09-27T03:00:12;4.30;;;1.83;;
17987;SDS011;9119;50.932;5.342;2022-09-27T03:03:00;4.53;;;1.40;;
17987;SDS011;9119;50.932;5.342;2022-09-27T03:05:48;7.93;;;1.60;;
17987;SDS011;9119;50.932;5.342;2022-09-27T03:08:20;5.20;;;1.63;;
17987;SDS011;9119;50.932;5.342;2022-09-27T03:10:47;8.30;;;1.43;;
17987;SDS011;9119;50.932;5.342;2022-09-27T03:13:12;5.40;;;1.27;;
17987;SDS011;9119;50.932;5.342;2022-09-27T03:15:38;4.30;;;1.00;;
17987;SDS011;9119;50.932;5.342;2022-09-27T03:18:03;2.37;;;1.13;;
17987;SDS011;9119;50.932;5.342;2022-09-27T03:20:29;4.73;;;1.37;;
17987;SDS011;9119;50.932;5.342;2022-09-27T03:22:55;5.03;;;1.07;;
17987;SDS011;9119;50.932;5.342;2022-09-27T03:25:21;5.80;;;1.23;;
17987;SDS011;9119;50.932;5.342;2022-09-27T03:27:46;4.33;;;1.20;;
17987;SDS011;9119;50.932;5.342;2022-09-27T03:30:12;4.30;;;1.10;;
17987;SDS011;9119;50.932;5.342;2022-09-27T03:32:45;4.07;;;1.10;;
17987;SDS011;9119;50.932;5.342;2022-09-27T03:35:11;3.17;;;1.13;;
17987;SDS011;9119;50.932;5.342;2022-09-27T03:37:37;7.60;;;1.17;;
17987;SDS011;9119;50.932;5.342;2022-09-27T03:40:03;4.87;;;0.90;;
17987;SDS011;9119;50.932;5.342;2022-09-27T03:42:29;3.80;;;1.00;;
17987;SDS011;9119;50.932;5.342;2022-09-27T03:44:55;5.30;;;1.00;;
17987;SDS011;9119;50.932;5.342;2022-09-27T03:47:21;5.30;;;1.00;;
17987;SDS011;9119;50.932;5.342;2022-09-27T03:49:47;5.07;;;1.13;;
17987;SDS011;9119;50.932;5.342;2022-09-27T03:52:13;1.77;;;0.87;;
17987;SDS011;9119;50.932;5.342;2022-09-27T03:54:39;8.13;;;1.30;;
17987;SDS011;9119;50.932;5.342;2022-09-27T03:57:05;2.93;;;0.90;;
17987;SDS011;9119;50.932;5.342;2022-09-27T03:59:30;6.40;;;1.00;;
17987;SDS011;9119;50.932;5.342;2022-09-27T04:01:56;5.20;;;1.40;;
17987;SDS011;9119;50.932;5.342;2022-09-27T04:04:22;2.63;;;0.90;;
17987;SDS011;9119;50.932;5.342;2022-09-27T04:06:47;2.37;;;0.90;;
17987;SDS011;9119;50.932;5.342;2022-09-27T04:09:13;3.63;;;1.20;;
17987;SDS011;9119;50.932;5.342;2022-09-27T04:11:39;2.77;;;0.80;;
17987;SDS011;9119;50.932;5.342;2022-09-27T04:14:05;3.40;;;0.90;;
17987;SDS011;9119;50.932;5.342;2022-09-27T04:16:32;6.00;;;1.37;;
17987;SDS011;9119;50.932;5.342;2022-09-27T04:18:58;6.73;;;1.00;;
17987;SDS011;9119;50.932;5.342;2022-09-27T04:21:25;6.10;;;1.03;;
17987;SDS011;9119;50.932;5.342;2022-09-27T04:23:51;2.93;;;0.80;;
17987;SDS011;9119;50.932;5.342;2022-09-27T04:26:17;1.40;;;0.80;;
17987;SDS011;9119;50.932;5.342;2022-09-27T04:28:45;5.20;;;1.10;;
17987;SDS011;9119;50.932;5.342;2022-09-27T04:31:11;6.10;;;1.00;;
17987;SDS011;9119;50.932;5.342;2022-09-27T04:33:36;7.80;;;1.33;;
17987;SDS011;9119;50.932;5.342;2022-09-27T04:36:02;2.33;;;1.03;;
17987;SDS011;9119;50.932;5.342;2022-09-27T04:38:47;7.63;;;0.83;;
17987;SDS011;9119;50.932;5.342;2022-09-27T04:41:12;3.90;;;0.90;;
17987;SDS011;9119;50.932;5.342;2022-09-27T04:43:39;5.03;;;0.87;;
17987;SDS011;9119;50.932;5.342;2022-09-27T04:46:05;4.27;;;0.90;;
17987;SDS011;9119;50.932;5.342;2022-09-27T04:48:31;13.10;;;1.03;;
17987;SDS011;9119;50.932;5.342;2022-09-27T04:50:57;6.70;;;1.23;;
17987;SDS011;9119;50.932;5.342;2022-09-27T04:53:23;5.50;;;0.90;;
17987;SDS011;9119;50.932;5.342;2022-09-27T04:55:50;3.53;;;0.90;;
17987;SDS011;9119;50.932;5.342;2022-09-27T04:58:17;2.90;;;1.13;;
17987;SDS011;9119;50.932;5.342;2022-09-27T05:00:42;5.77;;;1.20;;
17987;SDS011;9119;50.932;5.342;2022-09-27T05:03:08;1.93;;;1.03;;
17987;SDS011;9119;50.932;5.342;2022-09-27T05:05:33;4.13;;;0.87;;
17987;SDS011;9119;50.932;5.342;2022-09-27T05:07:59;2.57;;;1.20;;
17987;SDS011;9119;50.932;5.342;2022-09-27T05:10:26;3.37;;;1.03;;
17987;SDS011;9119;50.932;5.342;2022-09-27T05:12:51;2.87;;;0.90;;
17987;SDS011;9119;50.932;5.342;2022-09-27T05:15:17;2.80;;;1.10;;
17987;SDS011;9119;50.932;5.342;2022-09-27T05:17:42;2.13;;;1.00;;
17987;SDS011;9119;50.932;5.342;2022-09-27T05:20:09;9.83;;;1.57;;
17987;SDS011;9119;50.932;5.342;2022-09-27T05:22:35;2.67;;;0.93;;
17987;SDS011;9119;50.932;5.342;2022-09-27T05:25:02;9.47;;;1.13;;
17987;SDS011;9119;50.932;5.342;2022-09-27T05:27:28;3.70;;;2.27;;
17987;SDS011;9119;50.932;5.342;2022-09-27T05:29:55;4.40;;;1.10;;
17987;SDS011;9119;50.932;5.342;2022-09-27T05:32:20;5.00;;;1.27;;
17987;SDS011;9119;50.932;5.342;2022-09-27T05:34:46;2.23;;;1.03;;
17987;SDS011;9119;50.932;5.342;2022-09-27T05:37:13;6.63;;;1.13;;
17987;SDS011;9119;50.932;5.342;2022-09-27T05:39:38;4.63;;;1.13;;
17987;SDS011;9119;50.932;5.342;2022-09-27T05:42:04;8.10;;;1.37;;
17987;SDS011;9119;50.932;5.342;2022-09-27T05:44:32;4.30;;;1.40;;
17987;SDS011;9119;50.932;5.342;2022-09-27T05:47:00;4.37;;;1.27;;
17987;SDS011;9119;50.932;5.342;2022-09-27T05:49:29;6.57;;;1.57;;
17987;SDS011;9119;50.932;5.342;2022-09-27T05:51:55;3.23;;;1.20;;
17987;SDS011;9119;50.932;5.342;2022-09-27T05:54:21;5.47;;;1.33;;
17987;SDS011;9119;50.932;5.342;2022-09-27T05:56:47;5.13;;;1.53;;
17987;SDS011;9119;50.932;5.342;2022-09-27T05:59:13;4.23;;;1.70;;
17987;SDS011;9119;50.932;5.342;2022-09-27T06:01:38;4.53;;;1.87;;
17987;SDS011;9119;50.932;5.342;2022-09-27T06:04:04;5.27;;;1.70;;
17987;SDS011;9119;50.932;5.342;2022-09-27T06:06:30;3.27;;;1.90;;
17987;SDS011;9119;50.932;5.342;2022-09-27T06:08:59;9.80;;;1.97;;
17987;SDS011;9119;50.932;5.342;2022-09-27T06:11:26;5.30;;;1.57;;
17987;SDS011;9119;50.932;5.342;2022-09-27T06:13:52;13.93;;;3.43;;
17987;SDS011;9119;50.932;5.342;2022-09-27T06:16:18;7.80;;;2.40;;
17987;SDS011;9119;50.932;5.342;2022-09-27T06:18:44;4.40;;;2.23;;
17987;SDS011;9119;50.932;5.342;2022-09-27T06:21:09;4.53;;;1.57;;
17987;SDS011;9119;50.932;5.342;2022-09-27T06:23:35;7.20;;;2.03;;
17987;SDS011;9119;50.932;5.342;2022-09-27T06:26:05;8.57;;;2.10;;
17987;SDS011;9119;50.932;5.342;2022-09-27T06:28:32;7.03;;;1.40;;
17987;SDS011;9119;50.932;5.342;2022-09-27T06:31:01;13.37;;;2.50;;
17987;SDS011;9119;50.932;5.342;2022-09-27T06:33:28;6.43;;;2.10;;
17987;SDS011;9119;50.932;5.342;2022-09-27T06:35:54;6.93;;;2.20;;
17987;SDS011;9119;50.932;5.342;2022-09-27T06:38:20;3.70;;;1.97;;
17987;SDS011;9119;50.932;5.342;2022-09-27T06:40:46;11.30;;;2.27;;
17987;SDS011;9119;50.932;5.342;2022-09-27T06:43:13;5.77;;;1.90;;
17987;SDS011;9119;50.932;5.342;2022-09-27T06:45:40;6.83;;;2.47;;
17987;SDS011;9119;50.932;5.342;2022-09-27T06:48:07;2.53;;;1.60;;
17987;SDS011;9119;50.932;5.342;2022-09-27T06:50:36;9.33;;;2.33;;
17987;SDS011;9119;50.932;5.342;2022-09-27T06:53:03;6.30;;;1.90;;
17987;SDS011;9119;50.932;5.342;2022-09-27T06:55:30;8.77;;;2.60;;
17987;SDS011;9119;50.932;5.342;2022-09-27T06:57:56;6.30;;;3.03;;
17987;SDS011;9119;50.932;5.342;2022-09-27T07:00:42;10.27;;;2.97;;
17987;SDS011;9119;50.932;5.342;2022-09-27T07:03:10;6.57;;;3.07;;
17987;SDS011;9119;50.932;5.342;2022-09-27T07:05:36;6.90;;;2.60;;
17987;SDS011;9119;50.932;5.342;2022-09-27T07:08:02;5.77;;;2.83;;
17987;SDS011;9119;50.932;5.342;2022-09-27T07:10:35;7.03;;;2.90;;
17987;SDS011;9119;50.932;5.342;2022-09-27T07:13:09;5.00;;;3.00;;
17987;SDS011;9119;50.932;5.342;2022-09-27T07:15:35;4.27;;;2.73;;
17987;SDS011;9119;50.932;5.342;2022-09-27T07:18:04;6.37;;;3.10;;
17987;SDS011;9119;50.932;5.342;2022-09-27T07:20:31;5.37;;;2.87;;
17987;SDS011;9119;50.932;5.342;2022-09-27T07:23:00;7.20;;;3.50;;
17987;SDS011;9119;50.932;5.342;2022-09-27T07:25:25;5.83;;;3.13;;
17987;SDS011;9119;50.932;5.342;2022-09-27T07:27:51;4.40;;;3.17;;
17987;SDS011;9119;50.932;5.342;2022-09-27T07:30:17;12.63;;;3.43;;
17987;SDS011;9119;50.932;5.342;2022-09-27T07:32:43;5.37;;;3.53;;
17987;SDS011;9119;50.932;5.342;2022-09-27T07:35:09;4.80;;;3.30;;
17987;SDS011;9119;50.932;5.342;2022-09-27T07:37:36;7.80;;;3.57;;
17987;SDS011;9119;50.932;5.342;2022-09-27T07:40:03;7.87;;;3.60;;
17987;SDS011;9119;50.932;5.342;2022-09-27T07:42:36;9.07;;;4.10;;
17987;SDS011;9119;50.932;5.342;2022-09-27T07:45:06;7.67;;;3.53;;
17987;SDS011;9119;50.932;5.342;2022-09-27T07:47:33;7.63;;;3.10;;
17987;SDS011;9119;50.932;5.342;2022-09-27T07:50:01;10.93;;;3.13;;
17987;SDS011;9119;50.932;5.342;2022-09-27T07:52:28;5.00;;;2.80;;
17987;SDS011;9119;50.932;5.342;2022-09-27T07:54:54;6.23;;;2.90;;
17987;SDS011;9119;50.932;5.342;2022-09-27T07:57:20;5.30;;;2.63;;
17987;SDS011;9119;50.932;5.342;2022-09-27T07:59:46;4.47;;;2.30;;
17987;SDS011;9119;50.932;5.342;2022-09-27T08:02:13;8.83;;;3.00;;
17987;SDS011;9119;50.932;5.342;2022-09-27T08:04:40;5.27;;;2.40;;
17987;SDS011;9119;50.932;5.342;2022-09-27T08:07:07;5.67;;;2.30;;
17987;SDS011;9119;50.932;5.342;2022-09-27T08:09:34;4.77;;;2.70;;
17987;SDS011;9119;50.932;5.342;2022-09-27T08:12:00;6.60;;;3.00;;
17987;SDS011;9119;50.932;5.342;2022-09-27T08:14:25;4.70;;;2.93;;
17987;SDS011;9119;50.932;5.342;2022-09-27T08:16:51;7.80;;;2.90;;
17987;SDS011;9119;50.932;5.342;2022-09-27T08:19:17;7.47;;;3.00;;
17987;SDS011;9119;50.932;5.342;2022-09-27T08:21:43;9.43;;;3.10;;
17987;SDS011;9119;50.932;5.342;2022-09-27T08:24:09;8.47;;;3.30;;
17987;SDS011;9119;50.932;5.342;2022-09-27T08:26:35;7.83;;;3.43;;
17987;SDS011;9119;50.932;5.342;2022-09-27T08:29:00;7.33;;;3.60;;
17987;SDS011;9119;50.932;5.342;2022-09-27T08:31:27;8.27;;;3.03;;
17987;SDS011;9119;50.932;5.342;2022-09-27T08:33:52;7.33;;;3.57;;
17987;SDS011;9119;50.932;5.342;2022-09-27T08:36:19;8.13;;;3.20;;
17987;SDS011;9119;50.932;5.342;2022-09-27T08:38:48;8.20;;;3.60;;
17987;SDS011;9119;50.932;5.342;2022-09-27T08:49:18;9.40;;;3.57;;
17987;SDS011;9119;50.932;5.342;2022-09-27T08:51:50;6.60;;;3.30;;
17987;SDS011;9119;50.932;5.342;2022-09-27T08:56:56;7.13;;;3.53;;
17987;SDS011;9119;50.932;5.342;2022-09-27T08:59:30;4.60;;;3.57;;
17987;SDS011;9119;50.932;5.342;2022-09-27T09:02:03;6.13;;;3.10;;
17987;SDS011;9119;50.932;5.342;2022-09-27T09:04:38;18.03;;;3.60;;
17987;SDS011;9119;50.932;5.342;2022-09-27T09:07:07;8.80;;;3.73;;
17987;SDS011;9119;50.932;5.342;2022-09-27T09:09:59;6.10;;;3.80;;
17987;SDS011;9119;50.932;5.342;2022-09-27T09:13:01;13.30;;;4.23;;
17987;SDS011;9119;50.932;5.342;2022-09-27T09:15:52;6.67;;;3.70;;
17987;SDS011;9119;50.932;5.342;2022-09-27T09:21:28;8.50;;;4.20;;
17987;SDS011;9119;50.932;5.342;2022-09-27T09:27:06;8.43;;;3.63;;
17987;SDS011;9119;50.932;5.342;2022-09-27T09:35:33;9.27;;;3.70;;
17987;SDS011;9119;50.932;5.342;2022-09-27T09:38:13;8.70;;;3.30;;
17987;SDS011;9119;50.932;5.342;2022-09-27T09:43:47;6.90;;;3.33;;
17987;SDS011;9119;50.932;5.342;2022-09-27T09:46:29;8.53;;;3.10;;
17987;SDS011;9119;50.932;5.342;2022-09-27T09:49:14;6.60;;;3.60;;
17987;SDS011;9119;50.932;5.342;2022-09-27T09:51:45;7.63;;;3.73;;
17987;SDS011;9119;50.932;5.342;2022-09-27T09:54:21;6.07;;;2.90;;
17987;SDS011;9119;50.932;5.342;2022-09-27T09:57:00;5.80;;;2.63;;
17987;SDS011;9119;50.932;5.342;2022-09-27T09:59:37;9.10;;;2.90;;
17987;SDS011;9119;50.932;5.342;2022-09-27T10:04:57;5.10;;;2.50;;
17987;SDS011;9119;50.932;5.342;2022-09-27T10:07:23;8.33;;;2.63;;
17987;SDS011;9119;50.932;5.342;2022-09-27T10:09:51;3.73;;;2.30;;
17987;SDS011;9119;50.932;5.342;2022-09-27T10:12:22;5.87;;;2.53;;
17987;SDS011;9119;50.932;5.342;2022-09-27T10:14:48;9.97;;;2.97;;
17987;SDS011;9119;50.932;5.342;2022-09-27T10:17:17;6.70;;;2.70;;
17987;SDS011;9119;50.932;5.342;2022-09-27T10:19:45;9.90;;;2.70;;
17987;SDS011;9119;50.932;5.342;2022-09-27T10:24:54;6.17;;;2.27;;
17987;SDS011;9119;50.932;5.342;2022-09-27T10:27:27;5.90;;;2.20;;
17987;SDS011;9119;50.932;5.342;2022-09-27T10:30:02;3.53;;;2.03;;
17987;SDS011;9119;50.932;5.342;2022-09-27T10:32:32;7.67;;;2.53;;
17987;SDS011;9119;50.932;5.342;2022-09-27T10:40:45;9.07;;;2.60;;
17987;SDS011;9119;50.932;5.342;2022-09-27T10:43:34;6.03;;;1.87;;
17987;SDS011;9119;50.932;5.342;2022-09-27T10:49:08;8.17;;;3.80;;
17987;SDS011;9119;50.932;5.342;2022-09-27T10:51:45;4.77;;;1.97;;
17987;SDS011;9119;50.932;5.342;2022-09-27T10:54:25;5.50;;;1.90;;
17987;SDS011;9119;50.932;5.342;2022-09-27T10:57:04;4.83;;;2.07;;
17987;SDS011;9119;50.932;5.342;2022-09-27T10:59:40;8.37;;;2.17;;
17987;SDS011;9119;50.932;5.342;2022-09-27T11:02:19;8.23;;;2.70;;
17987;SDS011;9119;50.932;5.342;2022-09-27T11:07:55;9.60;;;2.20;;
17987;SDS011;9119;50.932;5.342;2022-09-27T11:10:29;3.23;;;1.80;;
17987;SDS011;9119;50.932;5.342;2022-09-27T11:13:13;5.87;;;2.33;;
17987;SDS011;9119;50.932;5.342;2022-09-27T11:18:34;4.13;;;1.77;;
17987;SDS011;9119;50.932;5.342;2022-09-27T11:24:21;6.77;;;1.80;;
17987;SDS011;9119;50.932;5.342;2022-09-27T11:30:04;7.43;;;2.10;;
17987;SDS011;9119;50.932;5.342;2022-09-27T11:38:16;4.57;;;1.73;;
17987;SDS011;9119;50.932;5.342;2022-09-27T11:40:59;15.70;;;2.53;;
17987;SDS011;9119;50.932;5.342;2022-09-27T11:49:10;8.60;;;2.10;;
17987;SDS011;9119;50.932;5.342;2022-09-27T12:05:26;8.40;;;2.07;;
17987;SDS011;9119;50.932;5.342;2022-09-27T12:10:45;6.30;;;1.67;;
17987;SDS011;9119;50.932;5.342;2022-09-27T12:13:14;6.43;;;1.77;;
17987;SDS011;9119;50.932;5.342;2022-09-27T12:15:44;7.37;;;1.77;;
17987;SDS011;9119;50.932;5.342;2022-09-27T12:21:08;7.53;;;1.80;;
17987;SDS011;9119;50.932;5.342;2022-09-27T12:26:18;8.77;;;2.40;;
17987;SDS011;9119;50.932;5.342;2022-09-27T12:31:30;7.07;;;2.10;;
17987;SDS011;9119;50.932;5.342;2022-09-27T12:36:58;13.77;;;2.30;;
17987;SDS011;9119;50.932;5.342;2022-09-27T12:42:32;5.83;;;1.80;;
17987;SDS011;9119;50.932;5.342;2022-09-27T12:45:10;11.33;;;2.10;;
17987;SDS011;9119;50.932;5.342;2022-09-27T12:48:00;3.50;;;1.00;;
17987;SDS011;9119;50.932;5.342;2022-09-27T12:50:49;2.13;;;0.83;;
17987;SDS011;9119;50.932;5.342;2022-09-27T12:57:01;3.17;;;1.00;;
17987;SDS011;9119;50.932;5.342;2022-09-27T13:13:42;4.97;;;1.90;;
17987;SDS011;9119;50.932;5.342;2022-09-27T13:16:08;3.30;;;1.20;;
17987;SDS011;9119;50.932;5.342;2022-09-27T13:21:04;3.73;;;1.63;;
17987;SDS011;9119;50.932;5.342;2022-09-27T13:26:03;6.77;;;1.60;;
17987;SDS011;9119;50.932;5.342;2022-09-27T13:28:58;3.77;;;1.43;;
17987;SDS011;9119;50.932;5.342;2022-09-27T13:45:41;6.47;;;1.97;;
17987;SDS011;9119;50.932;5.342;2022-09-27T13:48:16;3.13;;;1.80;;
17987;SDS011;9119;50.932;5.342;2022-09-27T13:53:39;4.63;;;1.70;;
17987;SDS011;9119;50.932;5.342;2022-09-27T13:59:19;6.30;;;1.80;;
17987;SDS011;9119;50.932;5.342;2022-09-27T14:02:11;4.47;;;1.70;;
17987;SDS011;9119;50.932;5.342;2022-09-27T14:04:53;9.97;;;2.03;;
17987;SDS011;9119;50.932;5.342;2022-09-27T14:07:21;8.30;;;2.37;;
17987;SDS011;9119;50.932;5.342;2022-09-27T14:09:52;8.93;;;1.40;;
17987;SDS011;9119;50.932;5.342;2022-09-27T14:12:21;6.57;;;1.97;;
17987;SDS011;9119;50.932;5.342;2022-09-27T14:14:53;6.33;;;1.63;;
17987;SDS011;9119;50.932;5.342;2022-09-27T14:17:20;9.60;;;1.30;;
17987;SDS011;9119;50.932;5.342;2022-09-27T14:19:47;4.80;;;1.37;;
17987;SDS011;9119;50.932;5.342;2022-09-27T14:22:15;4.27;;;1.43;;
17987;SDS011;9119;50.932;5.342;2022-09-27T14:24:52;7.00;;;1.40;;
17987;SDS011;9119;50.932;5.342;2022-09-27T14:27:23;4.67;;;1.53;;
17987;SDS011;9119;50.932;5.342;2022-09-27T14:32:26;7.07;;;2.00;;
17987;SDS011;9119;50.932;5.342;2022-09-27T14:38:03;11.97;;;4.17;;
17987;SDS011;9119;50.932;5.342;2022-09-27T14:40:34;9.73;;;3.97;;
17987;SDS011;9119;50.932;5.342;2022-09-27T14:43:14;7.00;;;2.70;;
17987;SDS011;9119;50.932;5.342;2022-09-27T14:45:42;6.57;;;2.00;;
17987;SDS011;9119;50.932;5.342;2022-09-27T14:51:03;7.43;;;2.57;;
17987;SDS011;9119;50.932;5.342;2022-09-27T14:53:36;5.60;;;2.00;;
17987;SDS011;9119;50.932;5.342;2022-09-27T14:56:11;8.83;;;2.17;;
17987;SDS011;9119;50.932;5.342;2022-09-27T14:58:44;8.20;;;2.87;;
17987;SDS011;9119;50.932;5.342;2022-09-27T15:01:17;10.53;;;2.97;;
17987;SDS011;9119;50.932;5.342;2022-09-27T15:03:47;12.00;;;3.00;;
17987;SDS011;9119;50.932;5.342;2022-09-27T15:06:15;7.70;;;2.67;;
17987;SDS011;9119;50.932;5.342;2022-09-27T15:08:41;8.73;;;2.57;;
17987;SDS011;9119;50.932;5.342;2022-09-27T15:11:11;7.90;;;2.40;;
17987;SDS011;9119;50.932;5.342;2022-09-27T15:13:37;5.93;;;1.80;;
17987;SDS011;9119;50.932;5.342;2022-09-27T15:16:12;7.63;;;2.40;;
17987;SDS011;9119;50.932;5.342;2022-09-27T15:18:46;9.70;;;2.07;;
17987;SDS011;9119;50.932;5.342;2022-09-27T15:21:34;7.67;;;2.43;;
17987;SDS011;9119;50.932;5.342;2022-09-27T15:24:01;8.17;;;2.60;;
17987;SDS011;9119;50.932;5.342;2022-09-27T15:29:18;8.50;;;2.33;;
17987;SDS011;9119;50.932;5.342;2022-09-27T15:31:56;12.70;;;2.87;;
17987;SDS011;9119;50.932;5.342;2022-09-27T15:34:29;11.07;;;3.27;;
17987;SDS011;9119;50.932;5.342;2022-09-27T15:36:58;8.60;;;2.27;;
17987;SDS011;9119;50.932;5.342;2022-09-27T15:42:00;8.83;;;2.70;;
17987;SDS011;9119;50.932;5.342;2022-09-27T15:44:50;11.57;;;2.77;;
17987;SDS011;9119;50.932;5.342;2022-09-27T15:55:11;4.10;;;2.20;;
17987;SDS011;9119;50.932;5.342;2022-09-27T15:58:05;8.50;;;2.00;;
17987;SDS011;9119;50.932;5.342;2022-09-27T16:00:49;9.83;;;2.17;;
17987;SDS011;9119;50.932;5.342;2022-09-27T16:03:18;8.80;;;2.37;;
17987;SDS011;9119;50.932;5.342;2022-09-27T16:05:44;5.63;;;2.20;;
17987;SDS011;9119;50.932;5.342;2022-09-27T16:08:16;6.17;;;2.10;;
17987;SDS011;9119;50.932;5.342;2022-09-27T16:10:43;7.47;;;2.93;;
17987;SDS011;9119;50.932;5.342;2022-09-27T16:13:12;16.03;;;3.30;;
17987;SDS011;9119;50.932;5.342;2022-09-27T16:15:38;11.73;;;3.47;;
17987;SDS011;9119;50.932;5.342;2022-09-27T16:18:04;7.77;;;2.80;;
17987;SDS011;9119;50.932;5.342;2022-09-27T16:20:30;11.13;;;3.23;;
17987;SDS011;9119;50.932;5.342;2022-09-27T16:22:57;6.53;;;3.10;;
17987;SDS011;9119;50.932;5.342;2022-09-27T16:25:23;11.53;;;3.97;;
17987;SDS011;9119;50.932;5.342;2022-09-27T16:27:49;8.73;;;3.17;;
17987;SDS011;9119;50.932;5.342;2022-09-27T16:30:16;11.10;;;3.80;;
17987;SDS011;9119;50.932;5.342;2022-09-27T16:32:45;9.70;;;4.50;;
17987;SDS011;9119;50.932;5.342;2022-09-27T16:35:13;9.63;;;3.40;;
17987;SDS011;9119;50.932;5.342;2022-09-27T16:37:40;14.83;;;3.03;;
17987;SDS011;9119;50.932;5.342;2022-09-27T16:40:06;11.43;;;3.47;;
17987;SDS011;9119;50.932;5.342;2022-09-27T16:42:37;8.30;;;3.87;;
17987;SDS011;9119;50.932;5.342;2022-09-27T16:45:03;6.77;;;2.87;;
17987;SDS011;9119;50.932;5.342;2022-09-27T16:47:33;9.13;;;3.17;;
17987;SDS011;9119;50.932;5.342;2022-09-27T16:49:59;8.80;;;2.63;;
17987;SDS011;9119;50.932;5.342;2022-09-27T16:52:44;12.37;;;3.00;;
17987;SDS011;9119;50.932;5.342;2022-09-27T16:55:13;6.53;;;2.80;;
17987;SDS011;9119;50.932;5.342;2022-09-27T16:57:43;6.77;;;2.77;;
17987;SDS011;9119;50.932;5.342;2022-09-27T17:00:13;8.20;;;2.90;;
17987;SDS011;9119;50.932;5.342;2022-09-27T17:02:49;15.40;;;3.47;;
17987;SDS011;9119;50.932;5.342;2022-09-27T17:05:14;12.67;;;2.70;;
17987;SDS011;9119;50.932;5.342;2022-09-27T17:07:40;11.70;;;2.90;;
17987;SDS011;9119;50.932;5.342;2022-09-27T17:10:07;10.43;;;3.10;;
17987;SDS011;9119;50.932;5.342;2022-09-27T17:12:33;8.67;;;2.77;;
17987;SDS011;9119;50.932;5.342;2022-09-27T17:14:59;4.80;;;3.00;;
17987;SDS011;9119;50.932;5.342;2022-09-27T17:17:25;8.83;;;4.17;;
17987;SDS011;9119;50.932;5.342;2022-09-27T17:19:51;9.57;;;3.30;;
17987;SDS011;9119;50.932;5.342;2022-09-27T17:22:17;12.03;;;4.03;;
17987;SDS011;9119;50.932;5.342;2022-09-27T17:24:45;10.53;;;3.23;;
17987;SDS011;9119;50.932;5.342;2022-09-27T17:27:11;11.13;;;3.90;;
17987;SDS011;9119;50.932;5.342;2022-09-27T17:29:39;9.93;;;3.57;;
17987;SDS011;9119;50.932;5.342;2022-09-27T17:32:08;8.77;;;3.10;;
17987;SDS011;9119;50.932;5.342;2022-09-27T17:34:34;7.33;;;2.93;;
17987;SDS011;9119;50.932;5.342;2022-09-27T17:37:00;10.80;;;3.27;;
17987;SDS011;9119;50.932;5.342;2022-09-27T17:39:28;9.93;;;3.30;;
17987;SDS011;9119;50.932;5.342;2022-09-27T17:41:57;10.03;;;3.77;;
17987;SDS011;9119;50.932;5.342;2022-09-27T17:44:29;9.73;;;4.30;;
17987;SDS011;9119;50.932;5.342;2022-09-27T17:47:00;11.47;;;3.70;;
17987;SDS011;9119;50.932;5.342;2022-09-27T17:49:45;11.77;;;3.67;;
17987;SDS011;9119;50.932;5.342;2022-09-27T17:52:30;11.53;;;4.00;;
17987;SDS011;9119;50.932;5.342;2022-09-27T17:54:59;13.93;;;3.70;;
17987;SDS011;9119;50.932;5.342;2022-09-27T17:57:24;8.43;;;3.17;;
17987;SDS011;9119;50.932;5.342;2022-09-27T17:59:50;13.97;;;4.03;;
17987;SDS011;9119;50.932;5.342;2022-09-27T18:02:17;14.30;;;3.97;;
17987;SDS011;9119;50.932;5.342;2022-09-27T18:04:44;10.43;;;3.80;;
17987;SDS011;9119;50.932;5.342;2022-09-27T18:07:10;9.90;;;3.60;;
17987;SDS011;9119;50.932;5.342;2022-09-27T18:09:37;12.53;;;3.67;;
17987;SDS011;9119;50.932;5.342;2022-09-27T18:12:03;8.20;;;3.70;;
17987;SDS011;9119;50.932;5.342;2022-09-27T18:14:36;12.23;;;4.43;;
17987;SDS011;9119;50.932;5.342;2022-09-27T18:17:01;9.57;;;4.10;;
17987;SDS011;9119;50.932;5.342;2022-09-27T18:19:27;11.70;;;4.70;;
17987;SDS011;9119;50.932;5.342;2022-09-27T18:21:53;9.33;;;3.37;;
17987;SDS011;9119;50.932;5.342;2022-09-27T18:24:18;8.20;;;3.50;;
17987;SDS011;9119;50.932;5.342;2022-09-27T18:26:44;7.40;;;3.63;;
17987;SDS011;9119;50.932;5.342;2022-09-27T18:29:14;7.50;;;3.10;;
17987;SDS011;9119;50.932;5.342;2022-09-27T18:31:44;10.83;;;3.43;;
17987;SDS011;9119;50.932;5.342;2022-09-27T18:34:11;27.67;;;6.40;;
17987;SDS011;9119;50.932;5.342;2022-09-27T18:36:37;13.70;;;5.10;;
17987;SDS011;9119;50.932;5.342;2022-09-27T18:39:09;12.53;;;5.17;;